Aircraft CS-LTO Data
= 1024"
:style="isLargeScreen ? 'max-height: calc(100vh - 6rem); overflow-y: auto;' : ''">
1
aircraft record found
CS-LTO
Cessna 680A Citation Latitude, c/n 680A-0263
Latest photos of CS-LTO
Recent Routes
NO LIVE DATA
| Time | Callsign | FL | Speed | Heading | Route |
|---|---|---|---|---|---|
| 2026-09-05 16:10 UTC | NJE697D | FL12 | 118 kt | 49° | — |
| 2026-09-05 14:12 UTC | NJE163F | — | 0 kt | 307° | — |
| 2026-09-05 12:36 UTC | NJE403D | FL65 | 94 kt | 349° | — |
| 2026-09-05 07:06 UTC | NJE409H | — | 8 kt | 245° | — |
| 2026-09-04 17:16 UTC | NJE793U | — | 17 kt | 245° | — |
| 2026-09-04 13:48 UTC | NJE099E | — | 16 kt | 228° | — |
| 2026-09-04 11:40 UTC | NJE015U | FL3 | 115 kt | 297° | — |
| 2026-09-04 07:56 UTC | NJE988B | — | 6 kt | 180° | — |
| 2026-09-03 17:36 UTC | NJE507E | FL6 | 104 kt | 253° | — |
| 2026-09-03 14:14 UTC | NJE2ET | — | 43 kt | 208° | — |
| 2026-09-03 10:54 UTC | NJE481W | FL119 | 215 kt | 247° | — |
| 2026-09-03 08:46 UTC | NJE406P | — | 21 kt | 315° | — |
| 2026-09-03 06:12 UTC | NJE393V | FL7 | 99 kt | 171° | — |
| 2026-09-02 15:52 UTC | NJE919V | — | 8 kt | 180° | — |
| 2026-09-02 08:36 UTC | NJE841T | — | 3 kt | 135° | — |
| 2026-09-01 18:26 UTC | NJE646U | FL37 | 185 kt | 315° | — |
| 2026-09-01 13:50 UTC | NJE3ET | — | 0 kt | 228° | — |
| 2026-09-01 13:30 UTC | NJE920G | — | 0 kt | 231° | — |
| 2026-08-31 19:38 UTC | EI N PT | FL180 | 354 kt | 335° | — |
| 2026-08-31 17:38 UTC | NJE994A | — | 12 kt | 45° | — |
| 2026-08-31 14:42 UTC | NJE604D | — | 0 kt | 191° | — |
| 2026-08-31 11:48 UTC | NJE410C | FL36 | 216 kt | 217° | — |
| 2026-08-30 19:26 UTC | NJE803W | — | 0 kt | 231° | — |
| 2026-08-30 09:42 UTC | NJE485L | — | 18 kt | 270° | — |
| 2026-08-30 05:48 UTC | NJE543C | FL2 | 107 kt | 325° | — |
| 2026-08-29 13:40 UTC | NJE117H | FL105 | 305 kt | 355° | — |
| 2026-08-29 11:04 UTC | NJE701C | FL129 | 337 kt | 295° | — |
| 2026-08-29 08:06 UTC | NJE535W | — | 1 kt | 205° | — |
| 2026-08-28 15:58 UTC | NJE491R | FL45 | 261 kt | 40° | — |
| 2026-08-28 12:58 UTC | NJE958Q | — | 0 kt | 76° | — |
| 2026-08-28 11:06 UTC | NJE524P | FL4 | 105 kt | 153° | — |
| 2026-08-28 07:26 UTC | NJE169L | — | 0 kt | 323° | — |
| 2026-08-27 15:12 UTC | NJE225C | — | 15 kt | 270° | — |
| 2026-08-27 10:00 UTC | NJE808U | FL11 | 139 kt | 187° | — |
| 2026-08-27 07:48 UTC | NJE420R | — | 3 kt | 107° | — |
| 2026-08-26 18:10 UTC | NJE034A | FL14 | 0 kt | 152° | — |
| 2026-08-26 14:28 UTC | NJE704F | — | 3 kt | 295° | — |
| 2026-08-26 10:42 UTC | NJE075R | FL15 | 110 kt | 263° | — |
| 2026-08-25 18:48 UTC | NJE708N | FL14 | 103 kt | 306° | — |
| 2026-08-25 15:48 UTC | NJE190K | FL39 | 217 kt | 84° | — |
| 2026-08-24 20:12 UTC | NJE031A | — | 15 kt | 217° | — |
| 2026-08-24 10:28 UTC | NJE643K | FL7 | 119 kt | 58° | — |
| 2026-08-23 18:18 UTC | NJE419L | FL3 | 100 kt | 9° | — |
| 2026-08-23 14:04 UTC | NJE212Q | FL105 | 252 kt | 169° | — |
| 2026-08-23 11:38 UTC | NJE391R | — | 12 kt | 307° | — |
| 2026-08-22 14:24 UTC | NJE761V | FL7 | 95 kt | 314° | — |
| 2026-08-21 17:20 UTC | NJE644A | — | 15 kt | 267° | — |
| 2026-08-21 14:48 UTC | NJE214W | FL7 | 129 kt | 238° | — |
| 2026-08-21 11:04 UTC | NJE381D | FL46 | 198 kt | 347° | — |
| 2026-08-21 08:16 UTC | NJE286W | FL85 | 308 kt | 34° | — |
| 2026-08-20 20:46 UTC | NJE911G | FL7 | 94 kt | 238° | — |
| 2026-08-20 15:10 UTC | NJE319K | — | 8 kt | 34° | — |
| 2026-08-20 11:50 UTC | NJE393A | — | 3 kt | 65° | — |
| 2026-08-19 18:16 UTC | NJE903D | — | 19 kt | 267° | — |
| 2026-08-19 13:12 UTC | NJE007F | FL406 | 444 kt | 93° | — |
| 2026-08-19 10:24 UTC | NJE605A | FL60 | 234 kt | 66° | — |
| 2026-08-19 07:48 UTC | NJE643A | FL4 | 108 kt | 48° | — |
| 2026-08-18 16:14 UTC | NJE101T | — | 3 kt | 107° | — |
| 2026-08-18 12:46 UTC | NJE283H | — | 2 kt | 284° | — |
| 2026-08-18 09:44 UTC | NJE995A | — | 12 kt | 152° | — |
| 2026-08-18 06:30 UTC | NJE99A | — | 0 kt | 37° | — |
| 2026-08-17 12:52 UTC | NJE562B | — | 4 kt | 307° | — |
| 2026-08-17 10:08 UTC | NJE645H | — | 15 kt | 287° | — |
| 2026-08-16 13:52 UTC | NJE754G | — | 14 kt | 163° | — |
| 2026-08-16 09:22 UTC | NJE367H | — | 8 kt | 110° | — |
| 2026-08-16 06:26 UTC | NJE881R | FL13 | 99 kt | 258° | — |
| 2026-08-16 03:00 UTC | NJE429R | FL66 | 213 kt | 199° | — |
| 2026-08-15 16:56 UTC | NJE818B | — | 1 kt | 37° | — |
| 2026-08-15 09:04 UTC | NJE467E | — | 10 kt | 242° | — |
| 2026-08-14 15:16 UTC | NJE274E | FL13 | 0 kt | 245° | — |
| 2026-08-13 21:10 UTC | NJE959Y | FL51 | 210 kt | 81° | — |
| 2026-08-13 19:28 UTC | NJE639A | FL2 | 98 kt | 326° | — |
| 2026-08-13 16:12 UTC | NJE388V | — | 0 kt | 132° | — |
| 2026-08-13 11:20 UTC | NJE878A | — | 7 kt | 135° | — |
| 2026-08-12 14:52 UTC | NJE228Y | FL11 | 112 kt | 157° | — |
| 2026-08-12 12:18 UTC | NJE379T | — | 3 kt | 135° | — |
| 2026-08-11 18:16 UTC | NJE228Q | FL12 | 114 kt | 196° | — |
| 2026-08-11 16:00 UTC | NJE822Y | — | 1 kt | 248° | — |
| 2026-08-10 15:46 UTC | NJE835P | — | 0 kt | 87° | — |
| 2026-08-10 11:10 UTC | NJE673N | — | 3 kt | 169° | — |
| 2026-08-10 09:24 UTC | NJE923D | — | 0 kt | 197° | — |
| 2026-08-10 05:34 UTC | NJE237F | — | 0 kt | 332° | — |
| 2026-08-09 14:54 UTC | NJE864N | — | 15 kt | 281° | — |
| 2026-08-09 13:18 UTC | NJE823B | FL25 | 190 kt | 150° | — |
| 2026-08-09 11:06 UTC | NJE664M | FL86 | 348 kt | 199° | — |
| 2026-08-08 17:54 UTC | NJE104E | FL2 | 30 kt | 248° | — |
| 2026-08-08 08:58 UTC | NJE396E | FL21 | 113 kt | 261° | — |
| 2026-08-07 18:48 UTC | NJE567K | — | 13 kt | 231° | — |
| 2026-08-07 15:58 UTC | NJE054R | FL98 | 305 kt | 64° | — |
| 2026-08-07 13:10 UTC | NJE733N | FL5 | 112 kt | 239° | — |
Live location data from OpenSky Network
Airframe Info
| Manufacturer | Cessna |
| Model | 680A Citation Latitude Search all Cessna 680A Citation Latitude |
| Construction Number (C/N) | 680A-0263 |
| Aircraft Type | Fixed wing multi engine |
| Number of Seats | 9 |
| Number of Engines | 2 |
| Engine Type | Turbofan |
| Engine Manufacturer and Model | Pratt & Whitney PW 306 D1 |
Aircraft
| Registration Number | CS-LTO |
| Mode S (ICAO24) Code | 49328F |
| Current Status | Registered |
| Delivery Date | 2021-03-17 |
Owner
| Owner | NetJets Europa |
| Address |
Lisboa, Portugal |